Time;durP1;ratioP1;P1;durP2;ratioP2;P2;SDS_P1;SDS_P2;PMS_P1;PMS_P2;Temp;Humidity;BMP_temperature;BMP_pressure;BME280_temperature;BME280_humidity;BME280_pressure;Samples;Min_cycle;Max_cycle;Signal;HPM_P1;HPM_P2
2023/12/27 00:02:18;;;;;;;1.70;0.90;;;24.00;54.90;;;;;;223572;1283;22542;-58
2023/12/27 00:07:24;;;;;;;2.80;1.20;;;23.80;55.80;;;;;;224027;1287;26671;-57
2023/12/27 00:12:28;;;;;;;1.90;0.90;;;23.70;55.80;;;;;;223926;1280;22611;-62
2023/12/27 00:17:34;;;;;;;3.10;1.30;;;23.60;56.50;;;;;;222736;1283;22504;-58
2023/12/27 00:22:40;;;;;;;1.60;1.00;;;23.80;55.40;;;;;;221085;1281;24224;-58
2023/12/27 00:27:45;;;;;;;3.00;0.80;;;23.60;55.60;;;;;;219612;1282;24229;-59
2023/12/27 00:32:49;;;;;;;1.20;1.10;;;23.60;55.80;;;;;;219256;1285;22540;-61
2023/12/27 00:37:54;;;;;;;1.80;0.80;;;23.50;56.00;;;;;;218886;1279;25254;-60
2023/12/27 00:43:00;;;;;;;4.50;0.80;;;23.50;56.30;;;;;;218835;1289;24262;-60
2023/12/27 00:48:05;;;;;;;2.10;0.90;;;23.40;56.10;;;;;;219063;1288;22706;-58
2023/12/27 00:53:10;;;;;;;1.40;0.90;;;23.30;56.40;;;;;;219322;1282;24767;-57
2023/12/27 00:58:16;;;;;;;0.80;0.70;;;23.70;55.90;;;;;;219154;1287;22675;-59
2023/12/27 01:03:21;;;;;;;1.10;0.70;;;24.10;55.40;;;;;;219177;1283;24353;-59
2023/12/27 01:08:26;;;;;;;1.70;0.90;;;24.20;54.70;;;;;;218993;1280;22736;-60
2023/12/27 01:13:31;;;;;;;2.60;1.00;;;24.30;54.30;;;;;;218962;1283;24248;-59
2023/12/27 01:18:36;;;;;;;2.50;0.90;;;24.30;54.20;;;;;;219325;1283;22658;-60
2023/12/27 01:23:40;;;;;;;0.90;0.60;;;24.30;54.90;;;;;;219222;1282;22541;-60
2023/12/27 01:28:45;;;;;;;1.80;0.80;;;24.10;54.70;;;;;;219320;1276;22805;-60
2023/12/27 01:33:50;;;;;;;1.00;0.60;;;23.90;55.20;;;;;;219298;1282;25577;-60
2023/12/27 01:38:57;;;;;;;0.60;0.60;;;23.80;55.30;;;;;;219300;1285;22909;-60
2023/12/27 01:44:01;;;;;;;1.50;0.70;;;23.70;55.50;;;;;;219224;1276;25430;-60
2023/12/27 01:49:06;;;;;;;1.10;0.90;;;23.70;55.90;;;;;;219301;1287;24243;-60
2023/12/27 01:54:12;;;;;;;1.50;0.70;;;23.60;55.60;;;;;;218878;1283;23461;-60
2023/12/27 01:59:17;;;;;;;4.40;1.00;;;23.60;56.10;;;;;;219252;1285;22525;-58
2023/12/27 02:04:22;;;;;;;2.00;0.70;;;23.60;56.00;;;;;;218917;1283;23949;-58
2023/12/27 02:09:28;;;;;;;1.30;0.80;;;23.50;55.90;;;;;;218999;1283;25422;-58
2023/12/27 02:14:32;;;;;;;0.70;0.70;;;23.50;56.00;;;;;;219556;1279;22668;-60
2023/12/27 02:19:37;;;;;;;1.50;0.70;;;23.50;56.30;;;;;;219307;1280;24286;-59
2023/12/27 02:24:43;;;;;;;2.50;0.60;;;23.40;56.20;;;;;;219352;1286;22819;-59
2023/12/27 02:29:48;;;;;;;0.50;0.50;;;23.40;56.40;;;;;;219178;1276;25254;-60
2023/12/27 02:34:52;;;;;;;0.80;0.60;;;23.70;55.80;;;;;;219191;1287;25494;-60
2023/12/27 02:39:59;;;;;;;0.50;0.50;;;24.10;55.00;;;;;;219127;1279;25384;-60
2023/12/27 02:45:05;;;;;;;1.00;0.50;;;24.30;54.60;;;;;;219122;1273;22674;-60
2023/12/27 02:50:10;;;;;;;1.30;0.60;;;24.30;54.30;;;;;;219307;1283;23110;-60
2023/12/27 02:55:14;;;;;;;0.70;0.50;;;24.30;54.40;;;;;;219168;1283;25526;-60
2023/12/27 03:00:19;;;;;;;0.70;0.40;;;24.10;54.70;;;;;;219170;1279;22529;-62
2023/12/27 03:05:23;;;;;;;0.80;0.50;;;23.90;55.50;;;;;;219292;1283;23844;-60
2023/12/27 03:10:28;;;;;;;0.40;0.40;;;23.80;55.40;;;;;;219273;1287;24215;-60
2023/12/27 03:15:32;;;;;;;2.80;0.50;;;23.70;55.60;;;;;;219153;1286;22992;-59
2023/12/27 03:20:36;;;;;;;0.60;0.40;;;23.60;55.80;;;;;;219151;1270;22539;-59
2023/12/27 03:25:44;;;;;;;0.60;0.60;;;23.50;55.90;;;;;;219112;1280;23169;-58
2023/12/27 03:30:50;;;;;;;0.60;0.40;;;23.40;56.10;;;;;;219236;1283;24227;-60
2023/12/27 03:35:55;;;;;;;0.80;0.50;;;23.40;55.90;;;;;;219202;1278;25771;-60
2023/12/27 03:41:00;;;;;;;0.80;0.50;;;23.50;55.70;;;;;;219322;1285;24371;-60
2023/12/27 03:46:05;;;;;;;1.80;0.70;;;23.40;55.70;;;;;;219154;1276;23966;-60
2023/12/27 03:51:11;;;;;;;0.50;0.40;;;23.40;55.70;;;;;;219312;1271;22604;-60
2023/12/27 03:56:16;;;;;;;0.40;0.40;;;23.40;56.10;;;;;;219245;1287;24330;-58
2023/12/27 04:01:21;;;;;;;0.80;0.50;;;23.50;55.70;;;;;;219194;1288;25642;-60
2023/12/27 04:06:26;;;;;;;0.70;0.50;;;23.80;55.10;;;;;;218955;1287;24354;-60
2023/12/27 04:11:31;;;;;;;1.50;0.40;;;24.10;54.50;;;;;;219118;1282;24266;-59
2023/12/27 04:16:36;;;;;;;0.60;0.60;;;24.30;54.20;;;;;;219344;1285;24234;-59
2023/12/27 04:21:44;;;;;;;0.90;0.60;;;24.30;54.00;;;;;;219285;1276;25332;-60
2023/12/27 04:26:48;;;;;;;0.70;0.50;;;24.30;54.00;;;;;;219152;1282;22542;-59
2023/12/27 04:31:53;;;;;;;0.30;0.30;;;24.10;53.90;;;;;;218932;1288;22565;-59
2023/12/27 04:36:57;;;;;;;1.10;0.50;;;23.90;54.90;;;;;;218940;1283;23424;-60
2023/12/27 04:42:02;;;;;;;0.50;0.40;;;23.80;55.00;;;;;;219287;1288;22558;-60
2023/12/27 04:47:07;;;;;;;0.40;0.40;;;23.70;55.70;;;;;;219161;1286;25527;-59
2023/12/27 04:52:12;;;;;;;0.50;0.50;;;23.70;55.40;;;;;;219241;1273;24406;-59
2023/12/27 04:57:16;;;;;;;0.70;0.50;;;23.70;55.60;;;;;;219052;1288;24266;-60
2023/12/27 05:02:21;;;;;;;0.40;0.40;;;23.60;56.10;;;;;;219095;1277;22535;-59
2023/12/27 05:07:26;;;;;;;0.40;0.40;;;23.50;55.90;;;;;;219064;1282;24356;-59
2023/12/27 05:12:31;;;;;;;0.50;0.50;;;23.40;55.70;;;;;;218830;1288;24409;-60
2023/12/27 05:17:36;;;;;;;0.40;0.40;;;23.50;55.70;;;;;;218872;1286;22584;-60
2023/12/27 05:22:40;;;;;;;0.50;0.50;;;23.60;55.40;;;;;;218877;1276;22535;-60
2023/12/27 05:27:45;;;;;;;1.30;0.40;;;23.40;56.30;;;;;;219187;1288;25256;-58
2023/12/27 05:32:49;;;;;;;0.40;0.30;;;23.30;56.00;;;;;;218893;1283;24230;-60
2023/12/27 05:37:54;;;;;;;0.50;0.40;;;23.20;56.00;;;;;;218994;1273;22549;-60
2023/12/27 05:43:00;;;;;;;0.60;0.30;;;23.20;56.60;;;;;;219123;1286;25363;-59
2023/12/27 05:48:05;;;;;;;1.20;0.40;;;23.10;56.20;;;;;;218989;1288;22543;-60
2023/12/27 05:53:09;;;;;;;0.90;0.40;;;23.00;56.80;;;;;;219203;1286;22552;-59
2023/12/27 05:58:17;;;;;;;0.20;0.20;;;23.00;56.30;;;;;;221274;1283;22570;-59
2023/12/27 06:03:22;;;;;;;0.30;0.30;;;23.00;56.20;;;;;;218834;1288;22626;-59
2023/12/27 06:08:26;;;;;;;0.50;0.50;;;23.00;56.40;;;;;;220963;1274;22620;-59
2023/12/27 06:13:31;;;;;;;0.70;0.40;;;23.30;56.00;;;;;;219008;1264;24222;-60
2023/12/27 06:18:36;;;;;;;0.70;0.40;;;23.70;55.00;;;;;;219093;1282;25430;-60
2023/12/27 06:23:40;;;;;;;0.50;0.50;;;23.90;54.50;;;;;;218973;1286;317954;-61
2023/12/27 06:28:45;;;;;;;0.40;0.30;;;24.10;54.30;;;;;;219383;1286;24206;-61
2023/12/27 06:33:50;;;;;;;0.40;0.40;;;24.00;53.90;;;;;;218974;1276;22542;-60
2023/12/27 06:38:55;;;;;;;0.30;0.30;;;23.70;54.80;;;;;;222615;1288;24221;-58
2023/12/27 06:44:00;;;;;;;1.30;0.60;;;23.70;54.60;;;;;;219418;1286;22536;-61
2023/12/27 06:49:05;;;;;;;0.40;0.40;;;23.60;54.60;;;;;;219097;1284;24232;-59
2023/12/27 06:54:09;;;;;;;0.60;0.40;;;23.50;54.90;;;;;;219236;1286;22523;-60
2023/12/27 06:59:13;;;;;;;0.40;0.30;;;23.40;55.60;;;;;;219135;1287;24227;-60
2023/12/27 07:04:19;;;;;;;0.30;0.30;;;23.40;55.20;;;;;;219143;1280;25296;-59
2023/12/27 07:09:23;;;;;;;0.30;0.30;;;23.30;55.70;;;;;;219119;1286;22542;-59
2023/12/27 07:14:28;;;;;;;0.60;0.40;;;23.20;55.20;;;;;;219325;1283;25506;-58
2023/12/27 07:19:32;;;;;;;0.60;0.40;;;23.10;55.80;;;;;;219306;1283;24468;-61
2023/12/27 07:24:37;;;;;;;0.60;0.40;;;23.00;56.50;;;;;;219622;1280;22560;-59
2023/12/27 07:29:44;;;;;;;0.40;0.40;;;23.10;55.60;;;;;;219300;1288;24256;-61
2023/12/27 07:34:49;;;;;;;2.50;0.40;;;23.10;55.60;;;;;;219095;1287;23505;-60
2023/12/27 07:39:53;;;;;;;0.90;0.40;;;23.10;56.00;;;;;;219294;1287;22628;-60
2023/12/27 07:44:58;;;;;;;0.90;0.40;;;22.90;56.30;;;;;;219125;1280;22542;-57
2023/12/27 07:50:02;;;;;;;4.20;0.50;;;23.00;56.60;;;;;;219394;1286;22804;-57
2023/12/27 07:55:07;;;;;;;1.50;0.50;;;23.00;56.20;;;;;;219226;1281;22744;-56
2023/12/27 08:00:15;;;;;;;1.90;0.80;;;23.00;56.30;;;;;;219228;1283;22534;-56
2023/12/27 08:05:19;;;;;;;4.10;0.70;;;22.90;57.10;;;;;;219217;1288;24189;-57
2023/12/27 08:10:23;;;;;;;3.00;0.50;;;22.80;58.20;;;;;;219041;1283;24482;-58
2023/12/27 08:15:28;;;;;;;4.10;0.70;;;22.90;57.70;;;;;;219240;1285;22658;-57
2023/12/27 08:20:33;;;;;;;2.70;0.60;;;22.80;58.00;;;;;;219206;1286;24247;-55
2023/12/27 08:25:37;;;;;;;1.50;0.60;;;22.70;58.40;;;;;;219116;1286;22537;-55
2023/12/27 08:30:42;;;;;;;1.40;0.70;;;22.70;58.50;;;;;;219307;1286;22542;-53
2023/12/27 08:35:46;;;;;;;1.60;0.70;;;22.60;58.80;;;;;;219051;1273;22556;-47
2023/12/27 08:40:50;;;;;;;3.40;0.80;;;22.60;58.40;;;;;;219175;1285;22546;-57
2023/12/27 08:45:56;;;;;;;5.50;0.60;;;22.70;58.30;;;;;;219083;1287;22569;-54
2023/12/27 08:51:00;;;;;;;6.90;0.80;;;22.90;57.90;;;;;;219171;1286;24372;-52
2023/12/27 08:56:05;;;;;;;5.80;0.70;;;23.20;57.70;;;;;;219041;1287;23046;-50
2023/12/27 09:01:10;;;;;;;1.30;0.50;;;23.00;57.70;;;;;;218982;1286;24056;-51
2023/12/27 09:06:14;;;;;;;4.60;0.80;;;22.90;58.50;;;;;;219126;1288;23476;-52
2023/12/27 09:11:18;;;;;;;2.80;0.70;;;22.80;58.30;;;;;;219694;1285;24227;-53
2023/12/27 09:16:44;;;;;;;3.70;0.60;;;22.90;58.10;;;;;;219127;1281;22536;-52
2023/12/27 09:21:48;;;;;;;0.70;0.50;;;22.80;58.00;;;;;;219094;1284;25399;-52
2023/12/27 09:26:53;;;;;;;2.10;0.70;;;22.70;58.20;;;;;;219415;1283;22602;-54
2023/12/27 09:31:57;;;;;;;1.20;0.60;;;22.70;58.00;;;;;;219063;1283;24254;-51
2023/12/27 09:37:04;;;;;;;2.10;0.60;;;22.60;57.80;;;;;;219006;1279;22596;-52
2023/12/27 09:42:08;;;;;;;3.30;0.60;;;22.60;57.80;;;;;;219399;1286;25204;-49
2023/12/27 09:47:13;;;;;;;4.70;0.60;;;22.80;57.90;;;;;;219230;1283;23251;-53
2023/12/27 09:52:19;;;;;;;1.40;0.70;;;22.90;57.30;;;;;;219158;1279;22546;-51
2023/12/27 09:57:25;;;;;;;1.70;0.70;;;23.00;56.80;;;;;;219199;1276;22551;-52
2023/12/27 10:02:30;;;;;;;1.10;0.60;;;22.80;57.20;;;;;;219022;1283;24411;-54
2023/12/27 10:07:39;;;;;;;1.00;0.70;;;22.80;57.30;;;;;;218970;1285;24224;-53
2023/12/27 10:12:44;;;;;;;1.00;0.70;;;22.90;57.10;;;;;;219034;1286;22934;-53
2023/12/27 10:17:49;;;;;;;1.70;0.70;;;23.20;56.60;;;;;;219129;1286;22543;-52
2023/12/27 10:22:53;;;;;;;1.20;0.60;;;23.30;55.80;;;;;;219118;1288;24378;-50
2023/12/27 10:27:58;;;;;;;1.80;0.70;;;23.30;56.50;;;;;;219019;1267;22706;-55
2023/12/27 10:33:03;;;;;;;1.70;0.80;;;23.20;56.60;;;;;;219165;1288;22542;-53
2023/12/27 10:38:09;;;;;;;2.10;1.00;;;23.30;56.50;;;;;;219325;1287;25004;-51
2023/12/27 10:43:13;;;;;;;0.90;0.70;;;23.10;56.20;;;;;;219329;1288;22714;-54
2023/12/27 10:48:21;;;;;;;1.40;0.70;;;23.20;56.00;;;;;;218216;1280;22701;-53
2023/12/27 10:53:29;;;;;;;2.10;0.50;;;23.20;56.30;;;;;;218231;1291;25452;-54
2023/12/27 10:58:36;;;;;;;3.20;0.70;;;23.30;55.70;;;;;;218871;1291;25369;-55
2023/12/27 11:03:43;;;;;;;2.10;0.60;;;23.00;56.10;;;;;;218822;1292;25449;-53
2023/12/27 11:08:50;;;;;;;1.80;0.60;;;22.90;56.30;;;;;;218244;1282;22670;-54
2023/12/27 11:13:57;;;;;;;1.90;0.70;;;22.90;56.50;;;;;;219364;1285;22540;-51
2023/12/27 11:19:08;;;;;;;0.70;0.60;;;22.80;56.90;;;;;;218548;1278;22546;-52
2023/12/27 11:24:13;;;;;;;1.40;0.60;;;23.00;56.20;;;;;;219036;1275;23473;-51
2023/12/27 11:29:19;;;;;;;3.50;0.90;;;22.90;56.20;;;;;;219132;1286;22541;-53
2023/12/27 11:34:24;;;;;;;2.50;0.50;;;22.90;56.10;;;;;;219012;1280;25255;-50
2023/12/27 11:39:30;;;;;;;1.40;0.80;;;23.00;55.90;;;;;;219186;1286;22589;-54
2023/12/27 11:44:40;;;;;;;1.10;0.50;;;23.10;55.80;;;;;;219176;1280;24350;-53
2023/12/27 11:50:09;;;;;;;1.20;0.70;;;23.00;55.60;;;;;;218983;1283;24235;-53
2023/12/27 11:55:21;;;;;;;0.90;0.60;;;22.90;55.80;;;;;;219233;1276;22558;-54
2023/12/27 12:00:30;;;;;;;1.10;0.50;;;23.00;55.20;;;;;;219050;1288;25375;-54
2023/12/27 12:06:15;;;;;;;0.60;0.60;;;23.10;55.00;;;;;;219141;1273;22547;-55
2023/12/27 12:11:23;;;;;;;1.10;0.50;;;23.10;55.30;;;;;;219234;1288;22546;-55
2023/12/27 12:16:31;;;;;;;2.70;0.80;;;23.20;55.10;;;;;;219093;1286;22547;-52
2023/12/27 12:21:36;;;;;;;3.40;0.90;;;23.30;54.40;;;;;;219273;1274;25367;-54
2023/12/27 12:26:45;;;;;;;1.10;0.70;;;23.20;54.30;;;;;;219389;1286;25518;-53
2023/12/27 12:31:51;;;;;;;1.20;1.00;;;23.30;54.30;;;;;;219264;1288;24447;-51
2023/12/27 12:36:56;;;;;;;0.80;0.50;;;23.20;54.10;;;;;;219360;1286;22545;-51
2023/12/27 12:42:01;;;;;;;1.00;0.70;;;23.10;54.30;;;;;;219346;1286;22780;-53
2023/12/27 12:47:07;;;;;;;1.10;0.70;;;23.10;54.20;;;;;;219258;1286;24323;-52
2023/12/27 12:52:12;;;;;;;1.50;0.70;;;23.10;54.40;;;;;;219114;1286;25262;-52
2023/12/27 12:57:17;;;;;;;1.50;0.80;;;23.10;54.20;;;;;;219090;1287;25134;-53
2023/12/27 13:02:22;;;;;;;1.20;0.70;;;23.10;54.20;;;;;;219108;1288;22659;-54
2023/12/27 13:07:28;;;;;;;1.60;0.60;;;22.90;54.50;;;;;;219061;1276;22553;-54
2023/12/27 13:12:33;;;;;;;1.10;0.60;;;22.80;54.90;;;;;;218922;1283;22563;-55
2023/12/27 13:17:41;;;;;;;1.10;0.90;;;22.90;54.40;;;;;;219186;1283;25806;-53
2023/12/27 13:22:45;;;;;;;0.70;0.70;;;22.90;54.30;;;;;;219196;1273;22553;-51
2023/12/27 13:27:50;;;;;;;1.90;0.80;;;22.60;55.40;;;;;;219175;1283;22611;-52
2023/12/27 13:33:08;;;;;;;0.40;0.40;;;23.00;54.60;;;;;;219094;1286;24250;-53
2023/12/27 13:38:14;;;;;;;0.60;0.60;;;23.50;53.30;;;;;;218808;1284;24331;-51
2023/12/27 13:43:19;;;;;;;0.60;0.50;;;23.70;52.80;;;;;;219107;1285;22669;-52
2023/12/27 13:48:24;;;;;;;2.70;0.80;;;23.70;52.60;;;;;;219115;1283;24246;-51
2023/12/27 13:53:29;;;;;;;1.20;0.70;;;23.60;52.60;;;;;;218962;1288;24254;-52
2023/12/27 13:58:35;;;;;;;1.30;0.60;;;23.60;52.80;;;;;;219271;1286;23781;-51
2023/12/27 14:03:41;;;;;;;1.40;0.60;;;23.50;53.00;;;;;;219039;1286;22534;-50
2023/12/27 14:08:47;;;;;;;1.00;0.60;;;23.30;53.10;;;;;;219235;1280;22541;-52
2023/12/27 14:13:52;;;;;;;1.00;0.90;;;23.20;53.40;;;;;;219240;1277;24277;-49
2023/12/27 14:18:56;;;;;;;1.20;0.70;;;23.10;53.70;;;;;;219020;1283;22835;-53
2023/12/27 14:24:04;;;;;;;1.00;0.60;;;23.00;53.70;;;;;;219244;1288;24276;-53
2023/12/27 14:29:09;;;;;;;0.70;0.70;;;22.90;53.80;;;;;;219060;1286;24282;-52
2023/12/27 14:34:14;;;;;;;0.70;0.70;;;22.90;54.10;;;;;;218977;1274;24296;-53
2023/12/27 14:39:19;;;;;;;0.70;0.70;;;22.70;54.20;;;;;;219043;1280;22544;-52
2023/12/27 14:44:24;;;;;;;1.60;1.10;;;22.80;54.00;;;;;;219132;1286;25423;-52
2023/12/27 14:49:28;;;;;;;1.80;0.90;;;22.80;53.80;;;;;;219266;1284;23937;-54
2023/12/27 14:54:34;;;;;;;0.80;0.80;;;22.70;53.80;;;;;;219080;1287;23756;-52
2023/12/27 14:59:38;;;;;;;1.40;0.90;;;23.00;53.60;;;;;;219379;1285;25513;-52
2023/12/27 15:04:43;;;;;;;1.60;1.20;;;23.40;52.80;;;;;;219332;1283;22567;-52
2023/12/27 15:09:48;;;;;;;1.60;1.10;;;23.60;51.70;;;;;;219165;1283;22687;-53
2023/12/27 15:14:55;;;;;;;2.20;1.40;;;23.70;51.80;;;;;;219335;1287;22581;-51
2023/12/27 15:19:59;;;;;;;2.10;1.80;;;23.70;51.50;;;;;;218090;1292;23848;-54
2023/12/27 15:25:05;;;;;;;3.20;2.10;;;23.70;51.60;;;;;;218352;1292;25465;-52
2023/12/27 15:30:14;;;;;;;4.00;2.80;;;23.50;51.70;;;;;;217802;1287;24311;-53
2023/12/27 15:35:20;;;;;;;4.10;2.80;;;23.30;52.00;;;;;;218162;1289;25336;-50
2023/12/27 15:40:24;;;;;;;5.50;3.70;;;23.10;52.30;;;;;;218992;1283;22802;-52
2023/12/27 15:45:29;;;;;;;4.90;3.20;;;23.00;52.50;;;;;;219103;1283;25362;-54
2023/12/27 15:50:36;;;;;;;7.00;4.60;;;22.90;52.60;;;;;;219151;1283;24231;-54
2023/12/27 15:55:40;;;;;;;7.80;5.30;;;23.00;52.40;;;;;;219187;1282;22850;-51
2023/12/27 16:00:44;;;;;;;8.10;5.40;;;23.00;52.10;;;;;;219211;1280;24211;-52
2023/12/27 16:05:49;;;;;;;9.60;6.90;;;22.80;52.10;;;;;;219150;1273;22587;-51
2023/12/27 16:10:54;;;;;;;10.30;6.90;;;23.00;51.70;;;;;;219003;1288;25419;-51
2023/12/27 16:15:59;;;;;;;9.40;6.30;;;23.40;50.80;;;;;;219258;1273;22546;-53
2023/12/27 16:21:05;;;;;;;11.60;6.90;;;23.70;51.10;;;;;;219062;1282;22542;-53
2023/12/27 16:26:10;;;;;;;10.60;7.50;;;23.80;50.50;;;;;;219206;1285;22559;-52
2023/12/27 16:31:20;;;;;;;12.50;7.80;;;23.80;50.30;;;;;;219321;1286;25958;-52
2023/12/27 16:36:25;;;;;;;14.80;8.90;;;23.70;50.70;;;;;;219188;1285;22557;-52
2023/12/27 16:41:29;;;;;;;11.60;8.20;;;23.60;51.00;;;;;;219362;1282;24221;-53
2023/12/27 16:46:35;;;;;;;11.70;8.70;;;23.40;51.00;;;;;;219301;1281;22657;-52
2023/12/27 16:51:39;;;;;;;13.70;8.60;;;23.40;51.10;;;;;;219330;1276;24326;-53
2023/12/27 16:56:47;;;;;;;13.10;9.20;;;23.30;51.40;;;;;;218820;1280;24231;-50
2023/12/27 17:01:52;;;;;;;15.30;9.70;;;23.30;51.20;;;;;;219007;1273;22790;-54
2023/12/27 17:06:57;;;;;;;15.70;9.90;;;23.30;51.50;;;;;;219026;1280;22554;-53
2023/12/27 17:12:03;;;;;;;15.10;10.40;;;23.20;51.40;;;;;;218887;1273;22626;-53
2023/12/27 17:17:09;;;;;;;15.10;10.60;;;23.10;51.80;;;;;;219307;1283;22764;-52
2023/12/27 17:22:13;;;;;;;14.20;10.40;;;23.10;51.50;;;;;;219310;1285;22810;-49
2023/12/27 17:27:22;;;;;;;13.70;11.00;;;23.00;51.80;;;;;;219265;1283;22536;-52
2023/12/27 17:32:26;;;;;;;18.90;11.90;;;22.90;52.00;;;;;;218177;1289;25579;-54
2023/12/27 17:37:41;;;;;;;14.80;10.60;;;22.80;51.80;;;;;;217972;1293;24252;-51
2023/12/27 17:42:45;;;;;;;15.10;11.50;;;23.00;51.40;;;;;;217976;1284;23202;-53
2023/12/27 17:47:53;;;;;;;16.40;11.10;;;23.40;50.30;;;;;;217841;1282;22564;-49
2023/12/27 17:52:58;;;;;;;14.90;10.70;;;23.70;49.60;;;;;;219111;1276;22598;-52
2023/12/27 17:58:04;;;;;;;16.70;12.00;;;24.00;49.10;;;;;;219154;1286;22620;-51
2023/12/27 18:03:09;;;;;;;18.30;14.30;;;23.90;48.70;;;;;;219806;1283;24224;-49
2023/12/27 18:08:14;;;;;;;21.90;15.30;;;23.90;49.10;;;;;;219643;1283;24218;-52
2023/12/27 18:13:19;;;;;;;18.70;13.10;;;23.80;49.40;;;;;;219404;1286;25996;-50
2023/12/27 18:18:24;;;;;;;18.70;13.70;;;23.60;49.70;;;;;;219571;1273;22587;-50
2023/12/27 18:23:29;;;;;;;17.90;12.80;;;23.60;50.30;;;;;;219361;1283;202592;-53
2023/12/27 18:28:39;;;;;;;17.10;12.80;;;23.40;50.10;;;;;;219748;1283;24208;-49
2023/12/27 18:33:44;;;;;;;15.80;12.70;;;23.30;50.30;;;;;;219278;1283;22561;-52
2023/12/27 18:38:49;;;;;;;14.80;12.10;;;23.20;50.70;;;;;;219461;1282;22596;-53
2023/12/27 18:43:53;;;;;;;15.50;12.00;;;23.10;50.80;;;;;;218929;1285;24307;-52
2023/12/27 18:48:59;;;;;;;17.50;12.30;;;23.10;51.00;;;;;;219141;1283;24225;-49
2023/12/27 18:54:04;;;;;;;18.30;12.40;;;23.10;50.60;;;;;;218927;1282;24221;-51
2023/12/27 18:59:08;;;;;;;17.70;12.90;;;23.00;50.50;;;;;;219058;1283;24918;-50
2023/12/27 19:04:17;;;;;;;19.10;12.10;;;23.10;50.60;;;;;;219153;1281;22560;-52
2023/12/27 19:09:21;;;;;;;16.70;12.40;;;23.00;50.50;;;;;;218824;1284;24265;-53
2023/12/27 19:14:26;;;;;;;16.50;11.20;;;22.90;50.80;;;;;;219170;1286;24015;-52
2023/12/27 19:20:09;;;;;;;14.70;11.60;;;23.00;50.60;;;;;;219217;1264;23611;-52
2023/12/27 19:25:16;;;;;;;14.80;11.80;;;23.10;53.20;;;;;;218904;1277;22540;-53
2023/12/27 19:30:20;;;;;;;17.70;11.90;;;23.70;52.60;;;;;;219207;1283;24269;-50
2023/12/27 19:35:25;;;;;;;16.70;11.30;;;24.10;52.10;;;;;;218944;1283;22552;-55
2023/12/27 19:40:30;;;;;;;15.90;11.30;;;24.00;51.90;;;;;;219210;1282;25478;-54
2023/12/27 19:45:35;;;;;;;15.90;11.80;;;23.90;51.80;;;;;;219310;1283;24256;-52
2023/12/27 19:50:40;;;;;;;21.80;12.00;;;23.90;52.10;;;;;;219264;1280;26004;-49
2023/12/27 19:55:45;;;;;;;17.50;11.90;;;23.70;53.40;;;;;;218948;1276;24253;-52
2023/12/27 20:00:51;;;;;;;15.20;11.40;;;23.50;53.40;;;;;;219276;1273;22822;-54
2023/12/27 20:05:56;;;;;;;16.20;10.80;;;23.40;53.00;;;;;;219179;1283;22554;-51
2023/12/27 20:11:01;;;;;;;15.40;11.00;;;23.30;53.60;;;;;;218971;1283;22631;-51
2023/12/27 20:16:06;;;;;;;16.80;11.90;;;23.20;53.50;;;;;;219155;1276;22552;-54
2023/12/27 20:21:12;;;;;;;17.60;12.20;;;23.30;54.30;;;;;;219175;1273;24362;-52
2023/12/27 20:26:16;;;;;;;15.90;11.40;;;23.20;54.80;;;;;;219459;1283;24201;-52
2023/12/27 20:31:21;;;;;;;21.10;11.70;;;23.30;55.20;;;;;;219236;1283;24377;-54
2023/12/27 20:36:26;;;;;;;17.20;12.40;;;23.20;55.80;;;;;;219091;1283;23207;-52
2023/12/27 20:41:32;;;;;;;19.20;11.70;;;23.10;55.70;;;;;;219189;1280;22540;-51
2023/12/27 20:46:37;;;;;;;21.60;12.30;;;23.00;56.20;;;;;;219119;1285;24228;-51
2023/12/27 20:51:41;;;;;;;19.10;12.10;;;23.00;56.40;;;;;;218962;1273;22580;-52
2023/12/27 20:56:47;;;;;;;23.50;12.80;;;23.00;57.20;;;;;;220739;1283;25179;-54
2023/12/27 21:01:52;;;;;;;16.70;11.80;;;23.20;55.90;;;;;;218918;1283;22615;-53
2023/12/27 21:06:57;;;;;;;22.50;11.60;;;23.00;56.10;;;;;;219008;1288;24262;-49
2023/12/27 21:12:06;;;;;;;19.90;11.70;;;22.90;55.80;;;;;;219008;1283;23212;-52
2023/12/27 21:17:11;;;;;;;22.90;12.70;;;22.90;55.50;;;;;;219199;1288;22557;-53
2023/12/27 21:22:15;;;;;;;24.40;13.80;;;23.30;54.60;;;;;;219033;1285;22553;-50
2023/12/27 21:27:22;;;;;;;22.40;12.20;;;23.70;54.60;;;;;;219059;1285;22553;-52
2023/12/27 21:32:28;;;;;;;19.80;12.70;;;23.80;54.40;;;;;;218953;1283;24446;-51
2023/12/27 21:37:32;;;;;;;22.60;13.40;;;23.90;54.10;;;;;;219065;1266;24202;-51
2023/12/27 21:42:37;;;;;;;25.40;13.20;;;23.90;53.30;;;;;;218955;1273;23245;-52
2023/12/27 21:47:41;;;;;;;20.90;12.40;;;23.90;53.00;;;;;;219021;1282;22723;-49
2023/12/27 21:52:45;;;;;;;19.10;11.70;;;23.90;53.30;;;;;;218932;1288;24224;-49
2023/12/27 21:57:50;;;;;;;18.50;11.80;;;23.90;52.90;;;;;;218929;1274;22639;-46
2023/12/27 22:02:57;;;;;;;24.50;12.80;;;23.60;53.40;;;;;;219090;1286;25360;-48
2023/12/27 22:08:01;;;;;;;27.50;12.90;;;23.50;57.50;;;;;;219165;1286;25549;-51
2023/12/27 22:13:13;;;;;;;25.70;12.80;;;23.50;58.10;;;;;;218937;1282;24228;-48
2023/12/27 22:18:18;;;;;;;21.50;12.70;;;23.60;59.10;;;;;;218805;1273;23818;-48
2023/12/27 22:23:23;;;;;;;25.00;12.90;;;23.60;59.00;;;;;;219278;1283;22559;-48
2023/12/27 22:28:29;;;;;;;20.60;12.20;;;23.40;59.90;;;;;;219069;1285;25116;-46
2023/12/27 22:33:37;;;;;;;21.00;12.50;;;23.30;59.20;;;;;;218802;1283;24253;-50
2023/12/27 22:38:42;;;;;;;20.30;12.50;;;23.30;59.00;;;;;;219088;1288;22546;-49
2023/12/27 22:43:47;;;;;;;17.80;11.80;;;23.20;59.60;;;;;;218910;1266;25707;-49
2023/12/27 22:48:52;;;;;;;18.40;12.50;;;23.10;59.00;;;;;;219161;1283;22553;-47
2023/12/27 22:53:57;;;;;;;16.80;11.30;;;23.00;59.30;;;;;;218992;1283;24163;-51
2023/12/27 22:59:01;;;;;;;17.30;11.70;;;22.90;59.30;;;;;;219223;1282;22543;-48
2023/12/27 23:04:05;;;;;;;16.20;11.40;;;22.90;59.50;;;;;;219113;1283;25693;-48
2023/12/27 23:09:10;;;;;;;16.20;10.80;;;22.90;59.10;;;;;;218831;1283;23952;-47
2023/12/27 23:14:15;;;;;;;17.20;11.90;;;22.90;59.00;;;;;;218982;1285;23958;-48
2023/12/27 23:19:19;;;;;;;17.00;11.20;;;22.80;58.90;;;;;;219135;1283;25134;-49
2023/12/27 23:24:27;;;;;;;14.80;10.20;;;23.00;58.70;;;;;;219112;1280;24265;-50
2023/12/27 23:29:32;;;;;;;17.50;10.20;;;23.50;57.50;;;;;;218940;1283;24297;-49
2023/12/27 23:34:36;;;;;;;17.10;11.80;;;23.90;56.30;;;;;;218980;1286;25524;-50
2023/12/27 23:39:42;;;;;;;18.90;10.20;;;24.10;56.00;;;;;;219011;1283;23041;-48
2023/12/27 23:44:47;;;;;;;15.80;10.20;;;24.30;55.30;;;;;;218992;1264;24278;-48
2023/12/27 23:49:51;;;;;;;18.40;10.90;;;24.20;55.20;;;;;;219283;1273;22550;-50
2023/12/27 23:54:56;;;;;;;14.80;10.50;;;24.10;55.60;;;;;;219220;1280;25284;-48
